Time;durP1;ratioP1;P1;durP2;ratioP2;P2;SDS_P1;SDS_P2;PMS_P1;PMS_P2;Temp;Humidity;BMP_temperature;BMP_pressure;BME280_temperature;BME280_humidity;BME280_pressure;Samples;Min_cycle;Max_cycle;Signal;HPM_P1;HPM_P2
2023/02/03 00:02:19;;;;;;;4.43;2.53;;;;;;;;;;4975050;28;20043;-63
2023/02/03 00:04:45;;;;;;;5.15;3.03;;;;;;;;;;4975089;28;20030;-69
2023/02/03 00:07:11;;;;;;;7.88;3.20;;;;;;;;;;4975217;28;20038;-62
2023/02/03 00:09:38;;;;;;;5.45;2.85;;;;;;;;;;4975003;28;20065;-62
2023/02/03 00:12:04;;;;;;;6.95;3.20;;;;;;;;;;4974650;28;20078;-63
2023/02/03 00:14:30;;;;;;;5.72;2.78;;;;;;;;;;4974809;28;20104;-63
2023/02/03 00:16:56;;;;;;;6.55;2.75;;;;;;;;;;4974821;28;20034;-62
2023/02/03 00:19:22;;;;;;;5.00;2.70;;;;;;;;;;4975312;28;20037;-62
2023/02/03 00:21:48;;;;;;;6.03;2.60;;;;;;;;;;4974950;28;20440;-62
2023/02/03 00:24:14;;;;;;;7.32;2.63;;;;;;;;;;4974585;28;20065;-62
2023/02/03 00:26:41;;;;;;;4.47;2.33;;;;;;;;;;4974860;28;20434;-72
2023/02/03 00:29:08;;;;;;;6.10;2.33;;;;;;;;;;4974431;28;20033;-62
2023/02/03 00:31:34;;;;;;;4.53;2.03;;;;;;;;;;4974396;28;20035;-62
2023/02/03 00:34:00;;;;;;;6.35;2.22;;;;;;;;;;4974370;28;20035;-61
2023/02/03 00:36:27;;;;;;;6.35;2.65;;;;;;;;;;4974271;28;20027;-61
2023/02/03 00:38:53;;;;;;;5.63;2.38;;;;;;;;;;4974344;28;20023;-62
2023/02/03 00:41:20;;;;;;;4.97;2.30;;;;;;;;;;4973293;28;20121;-71
2023/02/03 00:43:47;;;;;;;5.43;2.33;;;;;;;;;;4974394;28;20065;-70
2023/02/03 00:46:13;;;;;;;5.10;2.40;;;;;;;;;;4974024;28;20033;-62
2023/02/03 00:48:39;;;;;;;5.63;1.98;;;;;;;;;;4974295;28;20027;-62
2023/02/03 00:51:06;;;;;;;4.97;2.10;;;;;;;;;;4974299;28;20085;-62
2023/02/03 00:53:32;;;;;;;5.25;1.85;;;;;;;;;;4974115;28;20102;-61
2023/02/03 00:55:58;;;;;;;5.60;2.00;;;;;;;;;;4973837;28;20027;-62
2023/02/03 00:58:24;;;;;;;5.82;2.03;;;;;;;;;;4973866;28;20038;-62
2023/02/03 01:00:50;;;;;;;4.70;2.00;;;;;;;;;;4973320;28;20046;-62
2023/02/03 01:03:16;;;;;;;3.28;1.80;;;;;;;;;;4974143;28;20047;-62
2023/02/03 01:05:42;;;;;;;3.80;1.80;;;;;;;;;;4973795;28;20030;-62
2023/02/03 01:08:08;;;;;;;4.68;2.00;;;;;;;;;;4973758;28;20031;-62
2023/02/03 01:10:36;;;;;;;4.90;1.88;;;;;;;;;;4973675;28;20023;-62
2023/02/03 01:13:02;;;;;;;3.67;1.80;;;;;;;;;;4974108;28;20026;-61
2023/02/03 01:15:29;;;;;;;3.92;1.98;;;;;;;;;;4973688;28;20062;-66
2023/02/03 01:17:55;;;;;;;3.72;1.60;;;;;;;;;;4973791;28;20037;-62
2023/02/03 01:20:21;;;;;;;3.40;1.67;;;;;;;;;;4973818;28;20043;-68
2023/02/03 01:22:47;;;;;;;4.30;2.15;;;;;;;;;;4973809;28;20041;-62
2023/02/03 01:25:13;;;;;;;3.95;1.45;;;;;;;;;;4973664;28;20027;-62
2023/02/03 01:27:39;;;;;;;3.30;1.85;;;;;;;;;;4973851;28;20074;-66
2023/02/03 01:30:05;;;;;;;3.72;1.77;;;;;;;;;;4973200;28;20391;-61
2023/02/03 01:32:31;;;;;;;4.57;1.75;;;;;;;;;;4973662;28;20058;-65
2023/02/03 01:34:57;;;;;;;4.38;1.95;;;;;;;;;;4973583;28;20030;-61
2023/02/03 01:37:23;;;;;;;4.38;2.00;;;;;;;;;;4973518;28;20035;-65
2023/02/03 01:39:49;;;;;;;3.88;1.75;;;;;;;;;;4972853;28;20069;-62
2023/02/03 01:42:15;;;;;;;3.38;1.80;;;;;;;;;;4973024;28;20066;-61
2023/02/03 01:44:53;;;;;;;3.25;1.73;;;;;;;;;;4973145;28;20048;-62
2023/02/03 01:47:55;;;;;;;3.75;1.80;;;;;;;;;;4973045;28;20035;-61
2023/02/03 01:50:30;;;;;;;4.00;1.67;;;;;;;;;;4932373;29;20035;-62
2023/02/03 01:52:59;;;;;;;4.00;1.88;;;;;;;;;;4931858;29;20058;-61
2023/02/03 01:55:27;;;;;;;3.53;1.90;;;;;;;;;;4932550;29;20039;-63
2023/02/03 01:57:55;;;;;;;3.35;1.80;;;;;;;;;;4932293;29;20042;-61
2023/02/03 02:00:21;;;;;;;2.88;1.75;;;;;;;;;;4931921;29;20110;-62
2023/02/03 02:02:48;;;;;;;3.50;1.75;;;;;;;;;;4931514;29;20059;-61
2023/02/03 02:05:19;;;;;;;4.57;1.98;;;;;;;;;;4932133;29;20071;-61
2023/02/03 02:07:46;;;;;;;3.38;1.55;;;;;;;;;;4931760;29;20071;-70
2023/02/03 02:10:12;;;;;;;4.93;1.85;;;;;;;;;;4931617;29;20034;-61
2023/02/03 02:12:38;;;;;;;3.53;1.70;;;;;;;;;;4931979;29;20035;-61
2023/02/03 02:15:04;;;;;;;3.25;1.67;;;;;;;;;;4931586;29;20036;-62
2023/02/03 02:17:39;;;;;;;3.50;1.90;;;;;;;;;;4931866;29;20036;-61
2023/02/03 02:20:08;;;;;;;3.65;1.63;;;;;;;;;;4931459;29;20032;-61
2023/02/03 02:22:49;;;;;;;6.43;2.67;;;;;;;;;;4931527;29;20535;-70
2023/02/03 02:25:33;;;;;;;4.68;2.03;;;;;;;;;;4967652;28;20031;-61
2023/02/03 02:28:06;;;;;;;3.90;2.00;;;;;;;;;;4972445;28;20027;-62
2023/02/03 02:30:32;;;;;;;3.75;1.77;;;;;;;;;;4972195;28;20042;-62
2023/02/03 02:33:17;;;;;;;4.47;1.80;;;;;;;;;;4972572;28;20034;-61
2023/02/03 02:35:49;;;;;;;3.33;1.83;;;;;;;;;;4972320;28;20033;-62
2023/02/03 02:38:21;;;;;;;5.18;1.98;;;;;;;;;;4972289;28;20509;-61
2023/02/03 02:40:53;;;;;;;3.75;1.88;;;;;;;;;;4972239;28;20081;-61
2023/02/03 02:43:21;;;;;;;5.28;1.70;;;;;;;;;;4972405;28;20031;-60
2023/02/03 02:45:52;;;;;;;3.33;1.60;;;;;;;;;;4972287;28;20054;-61
2023/02/03 02:48:21;;;;;;;5.13;2.10;;;;;;;;;;4971922;28;20035;-60
2023/02/03 02:50:49;;;;;;;4.38;1.77;;;;;;;;;;4972004;28;20034;-60
2023/02/03 02:53:16;;;;;;;5.25;1.85;;;;;;;;;;4972382;28;20487;-61
2023/02/03 02:55:43;;;;;;;4.22;2.35;;;;;;;;;;4971906;28;20458;-60
2023/02/03 02:58:11;;;;;;;3.70;1.88;;;;;;;;;;4972245;28;20080;-61
2023/02/03 03:00:37;;;;;;;3.17;1.63;;;;;;;;;;4971687;28;20105;-71
2023/02/03 03:03:07;;;;;;;7.75;2.35;;;;;;;;;;4973576;28;20055;-64
2023/02/03 03:05:33;;;;;;;4.70;2.10;;;;;;;;;;4972075;28;20027;-60
2023/02/03 03:08:01;;;;;;;3.30;1.50;;;;;;;;;;4972284;28;20023;-62
2023/02/03 03:10:30;;;;;;;6.20;1.90;;;;;;;;;;4971867;28;20438;-60
2023/02/03 03:12:58;;;;;;;5.00;2.35;;;;;;;;;;4972249;28;20026;-60
2023/02/03 03:15:26;;;;;;;5.13;2.05;;;;;;;;;;4971430;28;20390;-69
2023/02/03 03:17:58;;;;;;;5.38;2.28;;;;;;;;;;4971844;28;20102;-61
2023/02/03 03:20:26;;;;;;;3.80;2.00;;;;;;;;;;4971805;28;20031;-60
2023/02/03 03:22:55;;;;;;;5.10;2.20;;;;;;;;;;4971999;28;20034;-60
2023/02/03 03:25:24;;;;;;;5.95;2.10;;;;;;;;;;4971929;28;20027;-61
2023/02/03 03:27:53;;;;;;;5.53;1.80;;;;;;;;;;4971685;28;20466;-60
2023/02/03 03:30:25;;;;;;;4.72;2.13;;;;;;;;;;4971687;28;20497;-60
2023/02/03 03:32:51;;;;;;;4.93;1.98;;;;;;;;;;4971913;28;20038;-61
2023/02/03 03:35:18;;;;;;;4.20;2.10;;;;;;;;;;4971628;28;20029;-61
2023/02/03 03:37:49;;;;;;;4.45;2.15;;;;;;;;;;4971799;28;20621;-61
2023/02/03 03:40:15;;;;;;;5.22;1.98;;;;;;;;;;4971575;28;20029;-60
2023/02/03 03:42:54;;;;;;;4.88;2.13;;;;;;;;;;4971754;28;20102;-70
2023/02/03 03:45:27;;;;;;;3.90;2.05;;;;;;;;;;4971886;28;20030;-60
2023/02/03 03:47:56;;;;;;;4.35;2.15;;;;;;;;;;4971644;28;20088;-60
2023/02/03 03:50:25;;;;;;;4.55;2.00;;;;;;;;;;4971649;28;20170;-60
2023/02/03 03:52:52;;;;;;;4.47;1.80;;;;;;;;;;4971613;28;20112;-61
2023/02/03 03:55:19;;;;;;;3.88;1.98;;;;;;;;;;4971521;28;20049;-62
2023/02/03 03:57:52;;;;;;;3.47;1.77;;;;;;;;;;4971495;28;20069;-61
2023/02/03 04:00:19;;;;;;;4.90;1.70;;;;;;;;;;4971359;28;20053;-61
2023/02/03 04:02:50;;;;;;;6.75;1.95;;;;;;;;;;4971174;28;20601;-61
2023/02/03 04:05:16;;;;;;;4.35;1.70;;;;;;;;;;4971420;28;20034;-60
2023/02/03 04:07:46;;;;;;;3.22;1.52;;;;;;;;;;4971410;28;20118;-61
2023/02/03 04:10:18;;;;;;;3.15;1.65;;;;;;;;;;4971610;28;20030;-60
2023/02/03 04:12:44;;;;;;;5.82;2.10;;;;;;;;;;4971240;28;20031;-60
2023/02/03 04:15:10;;;;;;;4.03;1.90;;;;;;;;;;4971431;28;20023;-61
2023/02/03 04:17:36;;;;;;;4.13;1.70;;;;;;;;;;4974210;28;20037;-60
2023/02/03 04:20:03;;;;;;;4.15;1.83;;;;;;;;;;4974701;28;20023;-64
2023/02/03 04:22:29;;;;;;;4.72;1.90;;;;;;;;;;4974881;28;20039;-60
2023/02/03 04:24:57;;;;;;;2.67;1.60;;;;;;;;;;4974494;28;20030;-60
2023/02/03 04:27:24;;;;;;;4.00;1.80;;;;;;;;;;4974788;28;20530;-61
2023/02/03 04:29:50;;;;;;;3.10;1.55;;;;;;;;;;4974790;28;20034;-67
2023/02/03 04:32:16;;;;;;;4.03;1.70;;;;;;;;;;4975036;28;20328;-60
2023/02/03 04:34:42;;;;;;;4.65;1.73;;;;;;;;;;4974493;28;20427;-65
2023/02/03 04:37:08;;;;;;;3.33;1.67;;;;;;;;;;4974458;28;20065;-62
2023/02/03 04:39:34;;;;;;;4.30;2.33;;;;;;;;;;4974329;28;20383;-61
2023/02/03 04:42:00;;;;;;;4.22;1.88;;;;;;;;;;4974507;28;20050;-68
2023/02/03 04:44:26;;;;;;;5.57;1.80;;;;;;;;;;4974357;28;20035;-60
2023/02/03 04:46:52;;;;;;;7.57;2.47;;;;;;;;;;4974503;28;20037;-61
2023/02/03 04:49:18;;;;;;;4.35;1.98;;;;;;;;;;4973926;28;20031;-61
2023/02/03 04:51:44;;;;;;;4.72;1.60;;;;;;;;;;4974494;28;20039;-61
2023/02/03 04:54:11;;;;;;;6.25;1.90;;;;;;;;;;4973890;28;20038;-60
2023/02/03 04:56:38;;;;;;;4.47;2.10;;;;;;;;;;4973788;28;20027;-61
2023/02/03 04:59:04;;;;;;;6.60;2.15;;;;;;;;;;4974106;28;20038;-60
2023/02/03 05:01:30;;;;;;;6.57;2.20;;;;;;;;;;4990653;28;20054;-63
2023/02/03 05:03:56;;;;;;;5.82;2.50;;;;;;;;;;4993268;28;20031;-60
2023/02/03 05:06:24;;;;;;;4.65;2.28;;;;;;;;;;4993012;28;20096;-65
2023/02/03 05:08:50;;;;;;;6.32;3.17;;;;;;;;;;4993251;28;20023;-60
2023/02/03 05:11:16;;;;;;;5.30;2.60;;;;;;;;;;4993401;28;20037;-60
2023/02/03 05:13:42;;;;;;;6.85;3.10;;;;;;;;;;4993256;28;20023;-60
2023/02/03 05:16:08;;;;;;;7.15;2.75;;;;;;;;;;4992991;28;20026;-61
2023/02/03 05:18:34;;;;;;;4.50;2.40;;;;;;;;;;4992775;28;20034;-60
2023/02/03 05:21:00;;;;;;;4.70;2.50;;;;;;;;;;4992802;28;20034;-61
2023/02/03 05:23:26;;;;;;;5.93;2.97;;;;;;;;;;4993147;28;20493;-60
2023/02/03 05:25:52;;;;;;;8.90;2.70;;;;;;;;;;4992837;28;20030;-60
2023/02/03 05:28:18;;;;;;;6.55;2.70;;;;;;;;;;4992247;28;20036;-60
2023/02/03 05:30:44;;;;;;;3.50;2.20;;;;;;;;;;4992548;28;20113;-60
2023/02/03 05:33:10;;;;;;;4.20;2.38;;;;;;;;;;4986921;28;20027;-60
2023/02/03 05:35:36;;;;;;;6.32;3.05;;;;;;;;;;4961572;28;20062;-60
2023/02/03 05:38:02;;;;;;;7.57;2.70;;;;;;;;;;4953720;29;20031;-60
2023/02/03 05:43:13;;;;;;;5.95;3.28;;;;;;;;;;4953911;29;20041;-60
2023/02/03 05:45:39;;;;;;;6.38;3.03;;;;;;;;;;4954112;29;20028;-60
2023/02/03 05:48:06;;;;;;;9.65;3.67;;;;;;;;;;4953903;29;20031;-59
2023/02/03 05:50:32;;;;;;;12.18;6.57;;;;;;;;;;4953905;29;20062;-72
2023/02/03 05:52:59;;;;;;;9.27;4.45;;;;;;;;;;4953568;29;20027;-60
2023/02/03 05:55:25;;;;;;;8.10;3.83;;;;;;;;;;4953532;29;20028;-60
2023/02/03 05:57:51;;;;;;;8.63;3.63;;;;;;;;;;4953458;29;20035;-60
2023/02/03 06:00:17;;;;;;;8.07;3.95;;;;;;;;;;4953257;29;20150;-60
2023/02/03 06:02:43;;;;;;;10.70;4.60;;;;;;;;;;4953421;28;20138;-60
2023/02/03 06:05:09;;;;;;;10.98;6.00;;;;;;;;;;4953537;29;20111;-61
2023/02/03 06:07:35;;;;;;;10.88;5.35;;;;;;;;;;4953274;29;20451;-60
2023/02/03 06:10:02;;;;;;;11.70;5.18;;;;;;;;;;4953304;29;20138;-60
2023/02/03 06:12:28;;;;;;;11.90;5.07;;;;;;;;;;4953464;29;20020;-62
2023/02/03 06:14:54;;;;;;;9.10;4.38;;;;;;;;;;4953019;29;20550;-61
2023/02/03 06:17:20;;;;;;;10.90;5.38;;;;;;;;;;4953172;29;20475;-59
2023/02/03 06:19:46;;;;;;;10.13;5.38;;;;;;;;;;4953228;29;20117;-62
2023/02/03 06:22:12;;;;;;;12.45;6.10;;;;;;;;;;4951952;28;20125;-70
2023/02/03 06:24:38;;;;;;;10.30;4.25;;;;;;;;;;4953093;29;20106;-59
2023/02/03 06:27:04;;;;;;;9.95;3.97;;;;;;;;;;4952954;29;20509;-63
2023/02/03 06:29:30;;;;;;;10.02;3.92;;;;;;;;;;4952923;29;20035;-62
2023/02/03 06:31:56;;;;;;;6.85;3.40;;;;;;;;;;4953439;29;20147;-62
2023/02/03 06:34:22;;;;;;;10.07;4.30;;;;;;;;;;4952754;29;20027;-72
2023/02/03 06:36:48;;;;;;;10.27;4.78;;;;;;;;;;4950921;28;20034;-60
2023/02/03 06:39:14;;;;;;;10.55;4.65;;;;;;;;;;4952150;28;20032;-64
2023/02/03 06:41:40;;;;;;;8.07;4.00;;;;;;;;;;4952674;28;20951;-73
2023/02/03 06:44:06;;;;;;;9.00;4.30;;;;;;;;;;4952991;29;20027;-60
2023/02/03 06:46:33;;;;;;;11.18;4.60;;;;;;;;;;4952940;29;20550;-64
2023/02/03 06:48:59;;;;;;;11.73;4.90;;;;;;;;;;4952625;29;20019;-62
2023/02/03 06:51:25;;;;;;;10.40;4.18;;;;;;;;;;4952823;29;20027;-76
2023/02/03 06:53:51;;;;;;;7.85;4.18;;;;;;;;;;4967381;28;20059;-59
2023/02/03 06:56:17;;;;;;;9.23;4.53;;;;;;;;;;4952558;29;20035;-60
2023/02/03 06:58:43;;;;;;;11.35;4.90;;;;;;;;;;4952697;29;20028;-60
2023/02/03 07:01:09;;;;;;;10.70;4.32;;;;;;;;;;4958426;28;20509;-65
2023/02/03 07:03:35;;;;;;;10.30;4.57;;;;;;;;;;4991476;28;20541;-78
2023/02/03 07:06:01;;;;;;;14.93;6.28;;;;;;;;;;4991280;28;20474;-75
2023/02/03 07:08:27;;;;;;;8.90;4.30;;;;;;;;;;4991112;28;20026;-60
2023/02/03 07:10:56;;;;;;;9.02;4.60;;;;;;;;;;4983920;28;20026;-59
2023/02/03 07:13:22;;;;;;;10.80;4.70;;;;;;;;;;4970716;28;20042;-59
2023/02/03 07:15:48;;;;;;;13.13;4.30;;;;;;;;;;4970691;28;20023;-60
2023/02/03 07:18:15;;;;;;;13.55;4.47;;;;;;;;;;4961213;28;20494;-60
2023/02/03 07:20:41;;;;;;;10.50;4.25;;;;;;;;;;4970980;28;20033;-60
2023/02/03 07:23:07;;;;;;;9.90;4.30;;;;;;;;;;4970371;28;20026;-61
2023/02/03 07:25:33;;;;;;;10.13;4.10;;;;;;;;;;4970612;28;20026;-62
2023/02/03 07:27:59;;;;;;;8.77;4.00;;;;;;;;;;4970621;28;20446;-62
2023/02/03 07:30:25;;;;;;;10.25;4.43;;;;;;;;;;4968798;28;20035;-61
2023/02/03 07:32:52;;;;;;;10.25;4.28;;;;;;;;;;4969343;28;20034;-62
2023/02/03 07:35:19;;;;;;;8.70;3.90;;;;;;;;;;4969269;28;20058;-61
2023/02/03 07:37:45;;;;;;;8.65;4.28;;;;;;;;;;4969321;28;20378;-71
2023/02/03 07:40:12;;;;;;;10.60;5.10;;;;;;;;;;4969916;28;20031;-60
2023/02/03 07:42:41;;;;;;;10.38;5.07;;;;;;;;;;4970015;28;20466;-61
2023/02/03 07:45:07;;;;;;;12.45;5.30;;;;;;;;;;4969215;28;20027;-73
2023/02/03 07:47:33;;;;;;;11.07;4.88;;;;;;;;;;4969006;28;20019;-63
2023/02/03 07:49:59;;;;;;;15.25;5.18;;;;;;;;;;4970150;28;20030;-60
2023/02/03 07:52:25;;;;;;;15.18;5.90;;;;;;;;;;4973455;28;20085;-62
2023/02/03 07:54:51;;;;;;;13.95;5.80;;;;;;;;;;4966707;28;20085;-62
2023/02/03 07:57:17;;;;;;;15.38;6.65;;;;;;;;;;4974318;28;20418;-65
2023/02/03 07:59:43;;;;;;;11.57;5.82;;;;;;;;;;4975148;28;20026;-69
2023/02/03 08:02:12;;;;;;;13.43;5.70;;;;;;;;;;4975070;28;20124;-61
2023/02/03 08:04:38;;;;;;;12.68;5.22;;;;;;;;;;4974509;28;20022;-62
2023/02/03 08:07:04;;;;;;;12.63;5.60;;;;;;;;;;4974007;28;20045;-62
2023/02/03 08:09:30;;;;;;;12.15;5.47;;;;;;;;;;4973778;28;20102;-63
2023/02/03 08:11:56;;;;;;;11.98;4.47;;;;;;;;;;4973288;28;20026;-64
2023/02/03 08:14:22;;;;;;;9.60;4.40;;;;;;;;;;4973708;28;20034;-63
2023/02/03 08:16:48;;;;;;;7.53;4.10;;;;;;;;;;4971156;28;20053;-72
2023/02/03 08:19:15;;;;;;;8.13;3.97;;;;;;;;;;4972593;28;20078;-63
2023/02/03 08:21:41;;;;;;;15.80;3.40;;;;;;;;;;4972175;28;20541;-63
2023/02/03 08:24:07;;;;;;;9.52;3.75;;;;;;;;;;4973747;28;20030;-63
2023/02/03 08:26:33;;;;;;;6.13;3.45;;;;;;;;;;4974512;28;20050;-63
2023/02/03 08:28:59;;;;;;;9.80;3.42;;;;;;;;;;4973294;28;20030;-63
2023/02/03 08:31:25;;;;;;;10.63;4.00;;;;;;;;;;4973632;28;20056;-68
2023/02/03 08:33:51;;;;;;;22.73;4.50;;;;;;;;;;4973264;28;20046;-64
2023/02/03 08:36:17;;;;;;;9.18;3.97;;;;;;;;;;4972667;28;20491;-63
2023/02/03 08:38:43;;;;;;;6.88;3.70;;;;;;;;;;4972845;28;20022;-77
2023/02/03 08:41:12;;;;;;;8.05;4.15;;;;;;;;;;4972706;28;20131;-62
2023/02/03 08:43:38;;;;;;;10.20;3.95;;;;;;;;;;4971370;28;20050;-61
2023/02/03 08:46:05;;;;;;;9.05;4.15;;;;;;;;;;4973915;28;20034;-62
2023/02/03 08:48:31;;;;;;;13.43;4.30;;;;;;;;;;4974957;28;20029;-73
2023/02/03 08:50:57;;;;;;;16.42;4.32;;;;;;;;;;4970466;28;20478;-73
2023/02/03 08:53:23;;;;;;;8.55;4.00;;;;;;;;;;4972730;28;20034;-75
2023/02/03 08:55:49;;;;;;;9.88;4.70;;;;;;;;;;4973786;28;20035;-78
2023/02/03 08:58:15;;;;;;;11.77;4.60;;;;;;;;;;4973368;28;20150;-73
2023/02/03 09:00:42;;;;;;;9.25;3.75;;;;;;;;;;4959952;28;20487;-76
2023/02/03 09:03:08;;;;;;;13.90;4.38;;;;;;;;;;4973032;28;20063;-74
2023/02/03 09:05:34;;;;;;;7.82;3.70;;;;;;;;;;4973471;28;20505;-61
2023/02/03 09:08:00;;;;;;;10.75;3.20;;;;;;;;;;4973280;28;20039;-72
2023/02/03 09:10:26;;;;;;;6.93;3.05;;;;;;;;;;4973639;28;20023;-61
2023/02/03 09:12:52;;;;;;;8.18;3.28;;;;;;;;;;4973104;28;20030;-77
2023/02/03 09:15:18;;;;;;;7.45;3.47;;;;;;;;;;4973134;28;20130;-60
2023/02/03 09:17:44;;;;;;;9.63;3.10;;;;;;;;;;4973639;28;20039;-61
2023/02/03 09:20:13;;;;;;;8.05;3.13;;;;;;;;;;4973281;28;20035;-68
2023/02/03 09:22:39;;;;;;;9.80;3.88;;;;;;;;;;4972321;28;20062;-63
2023/02/03 09:25:06;;;;;;;10.82;3.85;;;;;;;;;;4973000;28;20026;-81
2023/02/03 09:27:32;;;;;;;10.00;3.72;;;;;;;;;;4972583;28;20031;-76
2023/02/03 09:29:59;;;;;;;7.80;3.88;;;;;;;;;;4972304;28;20062;-63
2023/02/03 09:32:25;;;;;;;12.25;3.92;;;;;;;;;;4973427;28;20039;-63
2023/02/03 09:34:51;;;;;;;8.20;3.00;;;;;;;;;;4971437;28;20062;-79
2023/02/03 09:37:17;;;;;;;6.95;2.88;;;;;;;;;;4972287;28;20027;-83
2023/02/03 09:39:43;;;;;;;12.55;3.60;;;;;;;;;;4969775;28;20485;-66
2023/02/03 09:42:44;;;;;;;6.68;3.15;;;;;;;;;;4973057;28;20395;-66
2023/02/03 09:45:19;;;;;;;8.38;3.42;;;;;;;;;;4894134;29;20150;-63
2023/02/03 09:47:52;;;;;;;9.38;3.83;;;;;;;;;;4894979;29;20868;-70
2023/02/03 09:50:20;;;;;;;12.27;3.70;;;;;;;;;;4878629;29;20080;-64
2023/02/03 09:52:47;;;;;;;9.05;4.10;;;;;;;;;;4899320;29;20131;-66
2023/02/03 09:55:22;;;;;;;11.07;4.07;;;;;;;;;;4913399;29;20035;-68
2023/02/03 09:57:55;;;;;;;7.38;3.10;;;;;;;;;;4913571;29;20135;-65
2023/02/03 10:00:27;;;;;;;7.50;2.88;;;;;;;;;;4913768;29;20543;-84
2023/02/03 10:02:59;;;;;;;7.82;3.20;;;;;;;;;;4912703;29;20063;-78
2023/02/03 10:05:40;;;;;;;8.32;2.88;;;;;;;;;;4913390;29;20040;-63
2023/02/03 10:08:15;;;;;;;8.00;3.38;;;;;;;;;;4913419;29;20055;-69
2023/02/03 10:10:46;;;;;;;11.30;3.30;;;;;;;;;;4913275;29;20749;-76
2023/02/03 10:13:20;;;;;;;8.90;3.10;;;;;;;;;;4912926;29;20122;-63
2023/02/03 10:15:52;;;;;;;8.07;3.13;;;;;;;;;;4912852;29;20107;-63
2023/02/03 10:18:32;;;;;;;6.28;2.42;;;;;;;;;;4921384;28;20116;-69
2023/02/03 10:21:00;;;;;;;7.82;3.00;;;;;;;;;;4972830;28;20037;-69
2023/02/03 10:23:29;;;;;;;8.27;3.47;;;;;;;;;;4972436;28;20030;-62
2023/02/03 10:25:57;;;;;;;8.07;3.30;;;;;;;;;;4972389;28;20034;-65
2023/02/03 10:28:24;;;;;;;9.00;3.38;;;;;;;;;;4972338;28;20019;-72
2023/02/03 10:30:57;;;;;;;5.70;2.70;;;;;;;;;;4972481;28;20031;-72
2023/02/03 10:33:28;;;;;;;9.75;3.33;;;;;;;;;;4972584;28;20031;-66
2023/02/03 10:36:06;;;;;;;12.43;3.05;;;;;;;;;;4972351;28;20041;-64
2023/02/03 10:38:44;;;;;;;8.20;3.15;;;;;;;;;;4972436;28;20023;-64
2023/02/03 10:41:10;;;;;;;7.53;2.78;;;;;;;;;;4972025;28;20035;-64
2023/02/03 10:43:50;;;;;;;7.55;2.70;;;;;;;;;;4972121;28;20506;-63
2023/02/03 10:46:36;;;;;;;10.60;2.75;;;;;;;;;;4972181;28;20537;-62
2023/02/03 10:49:02;;;;;;;6.15;2.38;;;;;;;;;;4971808;28;20035;-63
2023/02/03 10:51:30;;;;;;;8.00;3.13;;;;;;;;;;4972370;28;20031;-63
2023/02/03 10:53:57;;;;;;;12.00;3.85;;;;;;;;;;4972528;28;20022;-69
2023/02/03 10:56:31;;;;;;;9.23;3.60;;;;;;;;;;4972364;28;20026;-63
2023/02/03 10:58:58;;;;;;;6.28;2.55;;;;;;;;;;4972433;28;20034;-63
2023/02/03 11:01:27;;;;;;;4.80;1.95;;;;;;;;;;4976141;28;20054;-67
2023/02/03 11:03:59;;;;;;;5.90;2.20;;;;;;;;;;4991797;28;20105;-63
2023/02/03 11:06:25;;;;;;;5.25;2.47;;;;;;;;;;4991960;28;20033;-63
2023/02/03 11:08:52;;;;;;;6.43;2.80;;;;;;;;;;4991802;28;20038;-62
2023/02/03 11:11:26;;;;;;;6.13;2.83;;;;;;;;;;4991770;28;20034;-63
2023/02/03 11:13:52;;;;;;;7.88;2.30;;;;;;;;;;4991613;28;20080;-62
2023/02/03 11:16:19;;;;;;;5.82;2.50;;;;;;;;;;4991418;28;20490;-63
2023/02/03 11:18:48;;;;;;;7.10;2.53;;;;;;;;;;4991454;28;20034;-62
2023/02/03 11:21:16;;;;;;;3.92;2.42;;;;;;;;;;4991281;28;20038;-63
2023/02/03 11:23:48;;;;;;;6.00;2.28;;;;;;;;;;4991249;28;20037;-64
2023/02/03 11:26:14;;;;;;;;;;;;;;;;;;4994890;28;20035;-63
2023/02/03 11:28:42;;;;;;;7.57;2.90;;;;;;;;;;4995193;28;19929;-63
2023/02/03 11:31:16;;;;;;;8.70;3.33;;;;;;;;;;4995176;28;20030;-63
2023/02/03 11:33:46;;;;;;;5.45;2.85;;;;;;;;;;4995355;28;20030;-76
2023/02/03 11:36:12;;;;;;;6.60;3.35;;;;;;;;;;4995285;28;20439;-70
2023/02/03 11:38:41;;;;;;;8.45;3.85;;;;;;;;;;4994377;28;20100;-63
2023/02/03 11:41:13;;;;;;;7.25;3.03;;;;;;;;;;4994788;28;20481;-63
2023/02/03 11:43:40;;;;;;;8.63;3.45;;;;;;;;;;4994174;28;20030;-80
2023/02/03 11:46:07;;;;;;;8.00;2.65;;;;;;;;;;4994795;28;20041;-64
2023/02/03 11:48:37;;;;;;;6.90;2.72;;;;;;;;;;4994832;28;20018;-64
2023/02/03 11:51:21;;;;;;;8.75;2.65;;;;;;;;;;4995285;28;20046;-69
2023/02/03 11:53:55;;;;;;;10.70;4.13;;;;;;;;;;4994791;28;20023;-63
2023/02/03 11:56:24;;;;;;;14.05;3.88;;;;;;;;;;4995226;28;20033;-63
2023/02/03 11:58:50;;;;;;;8.45;3.58;;;;;;;;;;4988022;28;20038;-65
2023/02/03 12:01:27;;;;;;;7.95;4.03;;;;;;;;;;4987033;28;20062;-64
2023/02/03 12:04:11;;;;;;;8.55;3.65;;;;;;;;;;4994711;28;20062;-65
2023/02/03 12:06:40;;;;;;;9.27;4.25;;;;;;;;;;4994397;28;20034;-65
2023/02/03 12:09:09;;;;;;;6.07;2.83;;;;;;;;;;4994299;28;20138;-64
2023/02/03 12:11:38;;;;;;;8.43;3.35;;;;;;;;;;4981008;28;20667;-65
2023/02/03 12:14:22;;;;;;;9.93;3.30;;;;;;;;;;4972365;28;20036;-65
2023/02/03 12:16:48;;;;;;;10.45;3.17;;;;;;;;;;4971261;28;20109;-64
2023/02/03 12:19:14;;;;;;;6.00;2.70;;;;;;;;;;4973054;28;20034;-64
2023/02/03 12:21:44;;;;;;;7.25;2.90;;;;;;;;;;4970237;28;20122;-63
2023/02/03 12:24:13;;;;;;;10.90;3.22;;;;;;;;;;4971417;28;20035;-63
2023/02/03 12:26:58;;;;;;;7.13;2.97;;;;;;;;;;4971460;28;20489;-63
2023/02/03 12:29:24;;;;;;;6.72;2.63;;;;;;;;;;4968079;28;20538;-68
2023/02/03 12:32:11;;;;;;;6.40;2.38;;;;;;;;;;4972040;28;20031;-64
2023/02/03 12:34:46;;;;;;;6.28;2.03;;;;;;;;;;4968922;28;20034;-64
2023/02/03 12:37:16;;;;;;;5.38;2.25;;;;;;;;;;4968937;28;20031;-63
2023/02/03 12:39:49;;;;;;;7.53;2.72;;;;;;;;;;4972919;28;20494;-63
2023/02/03 12:42:20;;;;;;;8.18;2.75;;;;;;;;;;4968691;28;20039;-63
2023/02/03 12:44:56;;;;;;;8.38;2.45;;;;;;;;;;4970771;28;20039;-63
2023/02/03 12:47:26;;;;;;;6.82;2.80;;;;;;;;;;4971705;28;20455;-63
2023/02/03 12:50:07;;;;;;;10.27;3.33;;;;;;;;;;4971048;28;20035;-70
2023/02/03 12:52:36;;;;;;;10.90;4.07;;;;;;;;;;4972956;28;20031;-64
2023/02/03 12:55:15;;;;;;;13.93;4.75;;;;;;;;;;4970988;28;20027;-64
2023/02/03 12:57:45;;;;;;;8.80;3.58;;;;;;;;;;4973874;28;20519;-63
2023/02/03 13:00:26;;;;;;;6.70;3.03;;;;;;;;;;4973439;28;20062;-63
2023/02/03 13:03:10;;;;;;;9.25;2.80;;;;;;;;;;4973916;28;20090;-63
2023/02/03 13:05:49;;;;;;;8.13;3.35;;;;;;;;;;4974169;28;20513;-62
2023/02/03 13:08:20;;;;;;;9.23;3.08;;;;;;;;;;4973593;28;20041;-62
2023/02/03 13:11:12;;;;;;;7.43;3.03;;;;;;;;;;4973847;28;20427;-64
2023/02/03 13:14:16;;;;;;;5.68;3.00;;;;;;;;;;4944194;28;20553;-78
2023/02/03 13:16:44;;;;;;;7.00;2.75;;;;;;;;;;4895325;29;20040;-70
2023/02/03 13:19:16;;;;;;;7.38;2.67;;;;;;;;;;4894962;29;20133;-78
2023/02/03 13:21:45;;;;;;;7.63;2.83;;;;;;;;;;4895224;29;20051;-80
2023/02/03 13:24:12;;;;;;;8.35;3.20;;;;;;;;;;4894193;29;20065;-64
2023/02/03 13:26:47;;;;;;;10.55;3.53;;;;;;;;;;4894168;29;20481;-64
2023/02/03 13:29:32;;;;;;;8.18;3.38;;;;;;;;;;4893558;29;20575;-68
2023/02/03 13:31:58;;;;;;;9.20;3.63;;;;;;;;;;4893931;29;20052;-64
2023/02/03 13:34:24;;;;;;;8.25;3.90;;;;;;;;;;4893837;29;20192;-64
2023/02/03 13:37:09;;;;;;;8.98;3.70;;;;;;;;;;4893724;29;20052;-64
2023/02/03 13:39:58;;;;;;;9.93;2.88;;;;;;;;;;4899918;29;20044;-64
2023/02/03 13:42:26;;;;;;;9.43;3.28;;;;;;;;;;4875195;29;20076;-64
2023/02/03 13:45:07;;;;;;;6.82;3.10;;;;;;;;;;4892710;29;20028;-64
2023/02/03 13:47:33;;;;;;;11.93;3.20;;;;;;;;;;4931688;28;20047;-63
2023/02/03 13:50:15;;;;;;;9.00;2.88;;;;;;;;;;4970718;28;20531;-61
2023/02/03 13:52:45;;;;;;;7.28;3.00;;;;;;;;;;4971720;28;20046;-62
2023/02/03 13:55:26;;;;;;;7.13;3.20;;;;;;;;;;4971716;28;20023;-63
2023/02/03 13:57:52;;;;;;;11.20;3.60;;;;;;;;;;4970304;28;20030;-62
2023/02/03 14:00:37;;;;;;;7.88;3.28;;;;;;;;;;4971510;28;20102;-62
2023/02/03 14:03:03;;;;;;;7.85;3.38;;;;;;;;;;4972963;28;20063;-62
2023/02/03 14:05:40;;;;;;;9.68;3.63;;;;;;;;;;4972312;28;20046;-62
2023/02/03 14:08:34;;;;;;;8.98;3.22;;;;;;;;;;4972364;28;20053;-63
2023/02/03 14:11:19;;;;;;;14.80;3.45;;;;;;;;;;4972168;28;20070;-64
2023/02/03 14:13:45;;;;;;;7.97;2.88;;;;;;;;;;4972510;28;20027;-64
2023/02/03 14:16:24;;;;;;;6.90;3.00;;;;;;;;;;4972463;28;20031;-64
2023/02/03 14:18:50;;;;;;;9.15;3.78;;;;;;;;;;4971570;28;20126;-66
2023/02/03 14:21:21;;;;;;;10.20;3.88;;;;;;;;;;4972521;28;20105;-63
2023/02/03 14:23:49;;;;;;;12.10;3.65;;;;;;;;;;4972929;28;20073;-63
2023/02/03 14:26:23;;;;;;;8.55;3.50;;;;;;;;;;4972495;28;20097;-63
2023/02/03 14:28:49;;;;;;;9.02;3.38;;;;;;;;;;4971198;28;20093;-64
2023/02/03 14:31:18;;;;;;;9.10;3.40;;;;;;;;;;4970971;28;20170;-63
2023/02/03 14:34:05;;;;;;;8.82;3.85;;;;;;;;;;4968293;28;20027;-63
2023/02/03 14:36:43;;;;;;;19.23;7.55;;;;;;;;;;4971924;28;20728;-62
2023/02/03 14:39:19;;;;;;;13.32;6.40;;;;;;;;;;4969314;28;20398;-62
2023/02/03 14:41:54;;;;;;;13.23;5.45;;;;;;;;;;4968855;28;20041;-62
2023/02/03 14:44:43;;;;;;;14.85;5.40;;;;;;;;;;4970975;28;20427;-62
2023/02/03 14:47:14;;;;;;;11.45;4.22;;;;;;;;;;4968598;28;20026;-62
2023/02/03 14:49:47;;;;;;;18.40;6.25;;;;;;;;;;4970471;28;20026;-62
2023/02/03 14:52:13;;;;;;;;;;;;;;;;;;4971062;28;20438;-62
2023/02/03 14:54:49;;;;;;;14.20;5.55;;;;;;;;;;4970719;28;19910;-62
2023/02/03 14:57:24;;;;;;;13.68;5.55;;;;;;;;;;4971082;28;20105;-62